createdAt,value
2022-10-05T00:01:57.054Z,10.95
2022-10-05T00:04:07.603Z,10.94
2022-10-05T00:06:10.767Z,10.92
2022-10-05T00:08:16.791Z,10.89
2022-10-05T00:10:20.827Z,10.90
2022-10-05T00:12:24.400Z,10.87
2022-10-05T00:14:30.403Z,10.83
2022-10-05T00:16:33.410Z,10.81
2022-10-05T00:18:36.484Z,10.82
2022-10-05T00:20:41.891Z,10.80
2022-10-05T00:22:44.853Z,10.81
2022-10-05T00:24:50.903Z,10.80
2022-10-05T00:26:57.751Z,10.78
2022-10-05T00:29:03.043Z,10.76
2022-10-05T00:31:12.432Z,10.76
2022-10-05T00:33:15.550Z,10.75
2022-10-05T00:35:19.941Z,10.77
2022-10-05T00:37:22.922Z,10.76
2022-10-05T00:39:26.924Z,10.76
2022-10-05T00:41:36.458Z,10.72
2022-10-05T00:44:12.933Z,10.68
2022-10-05T00:46:19.707Z,10.68
2022-10-05T00:48:26.382Z,10.65
2022-10-05T00:50:49.599Z,10.63
2022-10-05T00:52:57.085Z,10.62
2022-10-05T00:55:05.907Z,10.58
2022-10-05T00:57:24.783Z,10.58
2022-10-05T00:59:42.515Z,10.58
2022-10-05T01:03:00.158Z,10.58
2022-10-05T01:05:07.490Z,10.60
2022-10-05T01:07:17.024Z,10.60
2022-10-05T01:09:26.507Z,10.58
2022-10-05T01:11:33.153Z,10.56
2022-10-05T01:13:44.837Z,10.55
2022-10-05T01:15:54.316Z,10.51
2022-10-05T01:18:02.078Z,10.49
2022-10-05T01:20:24.208Z,10.46
2022-10-05T01:22:37.699Z,10.47
2022-10-05T01:24:48.171Z,10.49
2022-10-05T01:27:03.271Z,10.47
2022-10-05T01:29:11.790Z,10.46
2022-10-05T01:31:18.987Z,10.45
2022-10-05T01:33:27.578Z,10.43
2022-10-05T01:35:37.856Z,10.41
2022-10-05T01:37:47.281Z,10.38
2022-10-05T01:39:53.872Z,10.34
2022-10-05T01:42:00.098Z,10.30
2022-10-05T01:44:07.959Z,10.27
2022-10-05T01:46:19.675Z,10.21
2022-10-05T01:48:28.571Z,10.17
2022-10-05T01:50:41.407Z,10.15
2022-10-05T01:52:49.515Z,10.13
2022-10-05T01:55:02.702Z,10.12
2022-10-05T01:57:16.419Z,10.11
2022-10-05T01:59:27.460Z,10.09
2022-10-05T02:01:37.560Z,10.07
2022-10-05T02:03:44.863Z,10.04
2022-10-05T02:05:51.731Z,10.02
2022-10-05T02:07:58.185Z,10.00
2022-10-05T02:10:05.958Z,9.97
2022-10-05T02:12:13.999Z,9.94
2022-10-05T02:14:20.603Z,9.92
2022-10-05T02:16:30.059Z,9.90
2022-10-05T02:18:37.821Z,9.91
2022-10-05T02:20:41.993Z,9.92
2022-10-05T02:22:48.132Z,9.87
2022-10-05T02:24:54.538Z,9.85
2022-10-05T02:26:57.971Z,9.81
2022-10-05T02:29:04.408Z,9.79
2022-10-05T02:31:10.369Z,9.80
2022-10-05T02:33:20.415Z,9.77
2022-10-05T02:35:24.259Z,9.76
2022-10-05T02:37:35.750Z,9.76
2022-10-05T02:39:45.120Z,9.71
2022-10-05T02:41:52.855Z,9.69
2022-10-05T02:44:01.476Z,9.71
2022-10-05T02:46:12.541Z,9.73
2022-10-05T02:48:24.159Z,9.75
2022-10-05T02:50:32.207Z,9.74
2022-10-05T02:52:42.199Z,9.76
2022-10-05T02:54:51.330Z,9.75
2022-10-05T02:56:59.267Z,9.76
2022-10-05T02:59:07.375Z,9.73
2022-10-05T03:01:14.941Z,9.68
2022-10-05T03:03:25.138Z,9.65
2022-10-05T03:05:31.910Z,9.63
2022-10-05T03:07:37.603Z,9.58
2022-10-05T03:09:44.920Z,9.53
2022-10-05T03:11:54.145Z,9.51
2022-10-05T03:14:03.394Z,9.46
2022-10-05T03:16:25.670Z,9.45
2022-10-05T03:18:41.762Z,9.42
2022-10-05T03:20:48.571Z,9.38
2022-10-05T03:22:54.041Z,9.34
2022-10-05T03:25:13.689Z,9.30
2022-10-05T03:27:24.815Z,9.29
2022-10-05T03:29:34.110Z,9.26
2022-10-05T03:31:40.843Z,9.22
2022-10-05T03:33:48.319Z,9.19
2022-10-05T03:35:54.820Z,9.16
2022-10-05T03:38:06.450Z,9.11
2022-10-05T03:40:13.721Z,9.07
2022-10-05T03:42:22.181Z,9.08
2022-10-05T03:44:36.250Z,9.06
2022-10-05T03:46:49.580Z,9.03
2022-10-05T03:49:00.302Z,8.97
2022-10-05T03:51:09.044Z,8.95
2022-10-05T03:53:17.476Z,8.90
2022-10-05T03:55:26.199Z,8.91
2022-10-05T03:57:31.108Z,8.91
2022-10-05T03:59:41.468Z,8.90
2022-10-05T04:01:46.869Z,8.90
2022-10-05T04:03:52.967Z,8.91
2022-10-05T04:06:00.583Z,8.93
2022-10-05T04:08:08.307Z,8.91
2022-10-05T04:10:16.028Z,8.88
2022-10-05T04:12:24.664Z,8.87
2022-10-05T04:14:32.155Z,8.87
2022-10-05T04:16:37.550Z,8.87
2022-10-05T04:18:44.624Z,8.87
2022-10-05T04:20:52.278Z,8.87
2022-10-05T04:23:03.485Z,8.89
2022-10-05T04:25:13.982Z,8.90
2022-10-05T04:27:19.504Z,8.93
2022-10-05T04:29:31.120Z,8.95
2022-10-05T04:31:44.329Z,8.94
2022-10-05T04:33:55.791Z,8.92
2022-10-05T04:36:09.064Z,8.92
2022-10-05T04:38:38.158Z,8.91
2022-10-05T04:40:50.058Z,8.91
2022-10-05T04:43:02.274Z,8.91
2022-10-05T04:45:15.234Z,8.90
2022-10-05T04:47:30.104Z,8.89
2022-10-05T04:49:51.961Z,8.89
2022-10-05T04:51:58.885Z,8.89
2022-10-05T04:54:09.743Z,8.89
2022-10-05T04:56:16.463Z,8.86
2022-10-05T04:58:30.610Z,8.87
2022-10-05T05:00:42.690Z,8.85
2022-10-05T05:02:58.451Z,8.84
2022-10-05T05:05:15.047Z,8.83
2022-10-05T05:07:28.938Z,8.83
2022-10-05T05:09:58.919Z,8.83
2022-10-05T05:12:12.106Z,8.82
2022-10-05T05:14:28.648Z,8.81
2022-10-05T05:16:35.140Z,8.80
2022-10-05T05:19:30.725Z,8.78
2022-10-05T05:21:39.118Z,8.76
2022-10-05T05:23:45.871Z,8.75
2022-10-05T05:25:57.077Z,8.75
2022-10-05T05:28:11.669Z,8.74
2022-10-05T05:30:22.406Z,8.73
2022-10-05T05:32:36.446Z,8.73
2022-10-05T05:34:52.823Z,8.75
2022-10-05T05:36:58.601Z,8.77
2022-10-05T05:39:16.550Z,8.80
2022-10-05T05:41:29.168Z,8.82
2022-10-05T05:43:36.130Z,8.83
2022-10-05T05:45:42.577Z,8.85
2022-10-05T05:47:53.738Z,8.85
2022-10-05T05:50:10.771Z,8.87
2022-10-05T05:52:19.359Z,8.89
2022-10-05T05:54:27.989Z,8.86
2022-10-05T05:56:36.078Z,8.80
2022-10-05T05:58:45.042Z,8.80
2022-10-05T06:00:52.162Z,8.80
2022-10-05T06:02:58.403Z,8.82
2022-10-05T06:05:20.042Z,8.87
2022-10-05T06:07:30.384Z,8.91
2022-10-05T06:09:36.837Z,8.93
2022-10-05T06:12:04.515Z,8.98
2022-10-05T06:14:14.040Z,9.06
2022-10-05T06:16:22.060Z,9.15
2022-10-05T06:18:26.812Z,9.24
2022-10-05T06:20:36.775Z,9.29
2022-10-05T06:22:42.303Z,9.38
2022-10-05T06:24:54.251Z,9.45
2022-10-05T06:27:24.726Z,9.56
2022-10-05T06:29:38.329Z,9.66
2022-10-05T06:31:59.177Z,9.75
2022-10-05T06:34:10.153Z,9.87
2022-10-05T06:36:21.459Z,9.97
2022-10-05T06:38:34.889Z,10.06
2022-10-05T06:40:46.384Z,10.13
2022-10-05T06:43:03.923Z,10.20
2022-10-05T06:45:18.829Z,10.30
2022-10-05T06:47:41.551Z,10.43
2022-10-05T06:49:58.349Z,10.52
2022-10-05T06:52:22.393Z,10.57
2022-10-05T06:54:38.839Z,10.66
2022-10-05T06:56:45.937Z,10.74
2022-10-05T06:58:53.955Z,10.85
2022-10-05T07:01:00.037Z,11.01
2022-10-05T07:03:10.587Z,11.18
2022-10-05T07:05:55.420Z,11.31
2022-10-05T07:08:00.189Z,11.40
2022-10-05T07:10:15.711Z,11.59
2022-10-05T07:12:33.642Z,11.86
2022-10-05T07:14:51.262Z,12.05
2022-10-05T07:17:05.112Z,12.26
2022-10-05T07:19:20.034Z,12.46
2022-10-05T07:21:30.897Z,12.65
2022-10-05T07:23:49.442Z,12.67
2022-10-05T07:25:58.604Z,12.68
2022-10-05T07:28:06.428Z,12.65
2022-10-05T07:30:13.347Z,12.62
2022-10-05T07:32:31.277Z,12.68
2022-10-05T07:34:43.663Z,12.74
2022-10-05T07:37:09.417Z,12.79
2022-10-05T07:39:18.164Z,12.90
2022-10-05T07:41:28.028Z,13.01
2022-10-05T07:44:00.574Z,13.18
2022-10-05T07:46:09.694Z,13.42
2022-10-05T07:48:19.993Z,13.58
2022-10-05T07:50:26.905Z,13.74
2022-10-05T07:52:35.014Z,13.95
2022-10-05T07:54:46.840Z,14.19
2022-10-05T07:56:55.865Z,14.41
2022-10-05T07:59:03.006Z,14.60
2022-10-05T08:01:11.150Z,14.81
2022-10-05T08:03:24.758Z,15.00
2022-10-05T08:05:30.798Z,15.20
2022-10-05T08:07:35.950Z,15.36
2022-10-05T08:09:40.505Z,15.48
2022-10-05T08:11:48.575Z,15.60
2022-10-05T08:13:56.204Z,15.60
2022-10-05T08:16:01.616Z,15.66
2022-10-05T08:18:15.379Z,15.71
2022-10-05T08:20:29.610Z,15.83
2022-10-05T08:22:39.547Z,15.92
2022-10-05T08:24:45.288Z,16.01
2022-10-05T08:26:52.195Z,16.05
2022-10-05T08:29:02.024Z,16.22
2022-10-05T08:31:12.166Z,16.36
2022-10-05T08:33:18.515Z,16.45
2022-10-05T08:35:28.037Z,16.61
2022-10-05T08:37:35.292Z,16.78
2022-10-05T08:39:41.352Z,16.92
2022-10-05T08:42:28.033Z,17.13
2022-10-05T08:45:07.665Z,17.35
2022-10-05T08:47:35.047Z,17.66
2022-10-05T08:50:03.819Z,17.83
2022-10-05T08:52:23.790Z,18.03
2022-10-05T08:54:46.656Z,18.21
2022-10-05T08:56:55.464Z,18.41
2022-10-05T08:59:11.946Z,18.53
2022-10-05T09:01:21.693Z,18.60
2022-10-05T09:04:01.265Z,18.72
2022-10-05T09:06:23.087Z,18.88
2022-10-05T09:08:56.515Z,19.07
2022-10-05T09:11:04.799Z,19.22
2022-10-05T09:13:29.743Z,19.29
2022-10-05T09:15:46.112Z,19.30
2022-10-05T09:18:18.381Z,19.44
2022-10-05T09:20:30.750Z,19.57
2022-10-05T09:22:47.580Z,19.63
2022-10-05T09:24:57.081Z,19.67
2022-10-05T09:27:08.980Z,19.72
2022-10-05T09:29:36.432Z,19.70
2022-10-05T09:31:52.398Z,19.74
2022-10-05T09:34:22.980Z,19.62
2022-10-05T09:36:47.231Z,19.72
2022-10-05T09:39:14.850Z,19.73
2022-10-05T09:41:47.678Z,19.83
2022-10-05T09:44:29.063Z,19.93
2022-10-05T09:46:58.176Z,20.11
2022-10-05T09:49:22.404Z,20.23
2022-10-05T09:52:02.728Z,20.33
2022-10-05T09:54:43.150Z,20.35
2022-10-05T09:57:24.664Z,20.30
2022-10-05T09:59:52.882Z,20.34
2022-10-05T10:02:14.966Z,20.42
2022-10-05T10:04:30.394Z,20.46
2022-10-05T10:06:51.302Z,20.55
2022-10-05T10:09:08.747Z,20.59
2022-10-05T10:11:40.324Z,20.66
2022-10-05T10:14:09.338Z,20.75
2022-10-05T10:16:23.591Z,20.80
2022-10-05T10:19:03.918Z,20.78
2022-10-05T10:21:45.450Z,20.82
2022-10-05T10:24:06.359Z,20.84
2022-10-05T10:26:30.404Z,20.80
2022-10-05T10:28:57.120Z,20.80
2022-10-05T10:31:12.973Z,20.82
2022-10-05T10:33:26.764Z,20.78
2022-10-05T10:35:33.517Z,20.79
2022-10-05T10:37:40.681Z,20.80
2022-10-05T10:40:00.342Z,20.80
2022-10-05T10:42:26.456Z,20.78
2022-10-05T10:44:59.351Z,20.83
2022-10-05T10:47:40.524Z,20.87
2022-10-05T10:50:00.052Z,20.91
2022-10-05T10:52:33.581Z,20.94
2022-10-05T10:55:15.829Z,20.94
2022-10-05T10:57:26.660Z,20.92
2022-10-05T11:00:09.031Z,20.88
2022-10-05T11:02:27.987Z,20.82
2022-10-05T11:05:04.682Z,20.83
2022-10-05T11:07:26.157Z,20.86
2022-10-05T11:09:42.000Z,20.87
2022-10-05T11:12:28.933Z,20.90
2022-10-05T11:14:55.391Z,20.96
2022-10-05T11:17:26.160Z,20.99
2022-10-05T11:20:04.776Z,21.00
2022-10-05T11:22:32.343Z,21.05
2022-10-05T11:25:04.135Z,21.09
2022-10-05T11:27:51.704Z,21.13
2022-10-05T11:30:26.859Z,21.20
2022-10-05T11:32:57.571Z,21.24
2022-10-05T11:35:21.073Z,21.26
2022-10-05T11:38:09.815Z,21.27
2022-10-05T11:41:03.173Z,21.29
2022-10-05T11:43:30.511Z,21.29
2022-10-05T11:45:40.750Z,21.33
2022-10-05T11:47:53.764Z,21.38
2022-10-05T11:50:06.443Z,21.40
2022-10-05T11:52:14.333Z,21.42
2022-10-05T11:54:32.470Z,21.45
2022-10-05T11:56:41.360Z,21.50
2022-10-05T11:58:49.609Z,21.53
2022-10-05T12:00:58.767Z,21.56
2022-10-05T12:03:20.272Z,21.59
2022-10-05T12:05:28.404Z,21.63
2022-10-05T12:07:37.044Z,21.66
2022-10-05T12:10:09.330Z,21.73
2022-10-05T12:12:15.600Z,21.73
2022-10-05T12:14:26.267Z,21.75
2022-10-05T12:16:34.218Z,21.77
2022-10-05T12:18:48.147Z,21.80
2022-10-05T12:20:57.097Z,21.81
2022-10-05T12:23:04.170Z,21.85
2022-10-05T12:25:21.513Z,21.89
2022-10-05T12:27:26.707Z,21.93
2022-10-05T12:29:38.871Z,21.96
2022-10-05T12:31:47.010Z,22.01
2022-10-05T12:33:57.111Z,22.08
2022-10-05T12:36:04.508Z,22.15
2022-10-05T12:38:17.568Z,22.20
2022-10-05T12:40:27.985Z,22.26
2022-10-05T12:42:40.848Z,22.35
2022-10-05T12:45:01.225Z,22.43
2022-10-05T12:47:10.468Z,22.49
2022-10-05T12:49:23.454Z,22.54
2022-10-05T12:51:35.769Z,22.58
2022-10-05T12:53:48.469Z,22.58
2022-10-05T12:56:00.502Z,22.59
2022-10-05T12:58:14.399Z,22.63
2022-10-05T13:00:22.973Z,22.63
2022-10-05T13:02:32.909Z,22.66
2022-10-05T13:04:42.954Z,22.71
2022-10-05T13:06:54.856Z,22.72
2022-10-05T13:09:00.615Z,22.77
2022-10-05T13:11:14.097Z,22.77
2022-10-05T13:13:34.625Z,22.79
2022-10-05T13:15:42.502Z,22.80
2022-10-05T13:17:51.946Z,22.84
2022-10-05T13:19:58.403Z,22.85
2022-10-05T13:22:27.099Z,22.86
2022-10-05T13:24:32.637Z,22.87
2022-10-05T13:26:37.301Z,22.88
2022-10-05T13:28:45.255Z,22.88
2022-10-05T13:30:55.327Z,22.90
2022-10-05T13:33:02.248Z,22.91
2022-10-05T13:35:21.320Z,22.91
2022-10-05T13:37:32.845Z,22.91
2022-10-05T13:39:55.462Z,22.93
2022-10-05T13:42:02.730Z,22.95
2022-10-05T13:44:15.444Z,22.95
2022-10-05T13:46:25.593Z,22.96
2022-10-05T13:48:46.394Z,22.98
2022-10-05T13:50:55.271Z,23.00
2022-10-05T13:53:04.198Z,23.02
2022-10-05T13:55:15.448Z,23.01
2022-10-05T13:57:29.896Z,23.02
2022-10-05T13:59:38.134Z,23.02
2022-10-05T14:01:43.314Z,23.03
2022-10-05T14:04:05.476Z,23.05
2022-10-05T14:06:13.856Z,23.06
2022-10-05T14:08:18.626Z,23.08
2022-10-05T14:10:38.167Z,23.11
2022-10-05T14:12:42.647Z,23.10
2022-10-05T14:14:48.637Z,23.13
2022-10-05T14:16:54.756Z,23.16
2022-10-05T14:18:59.777Z,23.17
2022-10-05T14:21:05.167Z,23.19
2022-10-05T14:23:18.449Z,23.22
2022-10-05T14:25:26.992Z,23.24
2022-10-05T14:27:31.703Z,23.28
2022-10-05T14:29:36.305Z,23.30
2022-10-05T14:31:48.810Z,23.30
2022-10-05T14:33:51.798Z,23.32
2022-10-05T14:35:56.298Z,23.34
2022-10-05T14:38:01.002Z,23.36
2022-10-05T14:40:23.409Z,23.36
2022-10-05T14:42:29.883Z,23.35
2022-10-05T14:44:33.779Z,23.35
2022-10-05T14:46:38.493Z,23.34
2022-10-05T14:48:42.909Z,23.33
2022-10-05T14:50:53.150Z,23.31
2022-10-05T14:53:10.919Z,23.28
2022-10-05T14:55:31.864Z,23.27
2022-10-05T14:57:42.608Z,23.24
2022-10-05T15:00:07.438Z,23.21
2022-10-05T15:02:24.229Z,23.19
2022-10-05T15:04:45.515Z,23.17
2022-10-05T15:06:55.499Z,23.14
2022-10-05T15:09:17.613Z,23.12
2022-10-05T15:11:30.732Z,23.10
2022-10-05T15:13:38.986Z,23.05
2022-10-05T15:15:46.420Z,23.03
2022-10-05T15:17:52.801Z,23.00
2022-10-05T15:20:01.687Z,22.97
2022-10-05T15:22:14.455Z,22.95
2022-10-05T15:24:20.242Z,22.89
2022-10-05T15:26:33.103Z,22.86
2022-10-05T15:28:42.440Z,22.82
2022-10-05T15:30:52.624Z,22.79
2022-10-05T15:33:09.195Z,22.75
2022-10-05T15:35:30.060Z,22.73
2022-10-05T15:37:38.043Z,22.73
2022-10-05T15:39:45.786Z,22.70
2022-10-05T15:42:00.266Z,22.67
2022-10-05T15:44:10.991Z,22.63
2022-10-05T15:46:18.910Z,22.59
2022-10-05T15:48:29.127Z,22.57
2022-10-05T15:50:37.228Z,22.52
2022-10-05T15:52:45.150Z,22.49
2022-10-05T15:55:10.571Z,22.46
2022-10-05T15:57:19.429Z,22.43
2022-10-05T15:59:29.353Z,22.39
2022-10-05T16:01:46.777Z,22.35
2022-10-05T16:03:52.087Z,22.32
2022-10-05T16:06:15.739Z,22.26
2022-10-05T16:08:54.206Z,22.20
2022-10-05T16:10:58.128Z,22.15
2022-10-05T16:13:13.464Z,22.10
2022-10-05T16:15:26.193Z,22.05
2022-10-05T16:17:44.957Z,21.98
2022-10-05T16:20:03.749Z,21.95
2022-10-05T16:22:14.945Z,21.93
2022-10-05T16:24:25.830Z,21.88
2022-10-05T16:26:38.533Z,21.84
2022-10-05T16:28:50.818Z,21.77
2022-10-05T16:31:00.496Z,21.72
2022-10-05T16:33:07.558Z,21.68
2022-10-05T16:35:17.486Z,21.63
2022-10-05T16:37:28.180Z,21.61
2022-10-05T16:39:48.457Z,21.56
2022-10-05T16:41:57.867Z,21.49
2022-10-05T16:44:08.181Z,21.42
2022-10-05T16:46:20.845Z,21.36
2022-10-05T16:48:27.389Z,21.29
2022-10-05T16:50:36.983Z,21.24
2022-10-05T16:52:41.463Z,21.18
2022-10-05T16:54:48.125Z,21.13
2022-10-05T16:56:55.286Z,21.07
2022-10-05T16:59:05.220Z,21.01
2022-10-05T17:01:17.484Z,20.94
2022-10-05T17:03:28.697Z,20.87
2022-10-05T17:05:41.921Z,20.80
2022-10-05T17:07:56.909Z,20.74
2022-10-05T17:10:18.641Z,20.65
2022-10-05T17:12:48.016Z,20.53
2022-10-05T17:14:59.347Z,20.39
2022-10-05T17:17:30.924Z,20.31
2022-10-05T17:19:54.954Z,20.20
2022-10-05T17:22:00.841Z,20.09
2022-10-05T17:24:18.926Z,20.04
2022-10-05T17:26:40.533Z,19.97
2022-10-05T17:29:00.029Z,19.89
2022-10-05T17:31:14.647Z,19.82
2022-10-05T17:33:24.809Z,19.77
2022-10-05T17:35:43.563Z,19.73
2022-10-05T17:38:09.177Z,19.65
2022-10-05T17:40:35.261Z,19.55
2022-10-05T17:42:49.557Z,19.44
2022-10-05T17:44:55.424Z,19.33
2022-10-05T17:46:59.843Z,19.22
2022-10-05T17:49:19.037Z,19.14
2022-10-05T17:52:13.016Z,19.07
2022-10-05T17:54:38.331Z,18.99
2022-10-05T17:57:16.182Z,18.94
2022-10-05T17:59:38.749Z,18.88
2022-10-05T18:01:42.016Z,18.79
2022-10-05T18:03:46.324Z,18.73
2022-10-05T18:06:33.294Z,18.64
2022-10-05T18:08:38.354Z,18.53
2022-10-05T18:11:06.793Z,18.47
2022-10-05T18:13:20.851Z,18.41
2022-10-05T18:15:49.231Z,18.33
2022-10-05T18:17:54.738Z,18.26
2022-10-05T18:20:18.974Z,18.18
2022-10-05T18:22:30.235Z,18.12
2022-10-05T18:25:03.737Z,18.06
2022-10-05T18:27:38.313Z,18.01
2022-10-05T18:30:05.571Z,17.96
2022-10-05T18:32:18.945Z,17.91
2022-10-05T18:34:28.555Z,17.87
2022-10-05T18:36:42.938Z,17.81
2022-10-05T18:38:53.763Z,17.76
2022-10-05T18:41:01.481Z,17.71
2022-10-05T18:43:18.097Z,17.65
2022-10-05T18:45:25.603Z,17.59
2022-10-05T18:47:32.898Z,17.55
2022-10-05T18:49:44.946Z,17.49
2022-10-05T18:51:52.147Z,17.45
2022-10-05T18:54:06.198Z,17.41
2022-10-05T18:56:19.306Z,17.33
2022-10-05T18:58:25.975Z,17.27
2022-10-05T19:00:36.047Z,17.16
2022-10-05T19:02:42.930Z,17.03
2022-10-05T19:04:55.084Z,16.99
2022-10-05T19:07:08.693Z,16.94
2022-10-05T19:09:24.290Z,16.89
2022-10-05T19:11:34.312Z,16.84
2022-10-05T19:13:43.494Z,16.82
2022-10-05T19:15:53.399Z,16.82
2022-10-05T19:18:22.190Z,16.76
2022-10-05T19:20:28.431Z,16.75
2022-10-05T19:22:42.117Z,16.71
2022-10-05T19:24:57.280Z,16.69
2022-10-05T19:27:09.377Z,16.61
2022-10-05T19:29:23.915Z,16.60
2022-10-05T19:31:32.056Z,16.58
2022-10-05T19:33:45.984Z,16.55
2022-10-05T19:35:58.413Z,16.50
2022-10-05T19:38:15.637Z,16.48
2022-10-05T19:40:26.350Z,16.46
2022-10-05T19:42:47.863Z,16.42
2022-10-05T19:45:02.615Z,16.39
2022-10-05T19:47:17.374Z,16.34
2022-10-05T19:49:35.917Z,16.31
2022-10-05T19:51:49.661Z,16.27
2022-10-05T19:53:55.945Z,16.22
2022-10-05T19:56:17.013Z,16.18
2022-10-05T19:58:21.997Z,16.10
2022-10-05T20:00:27.027Z,16.02
2022-10-05T20:02:32.514Z,15.94
2022-10-05T20:04:37.410Z,15.90
2022-10-05T20:06:40.481Z,15.88
2022-10-05T20:08:45.554Z,15.85
2022-10-05T20:11:12.145Z,15.84
2022-10-05T20:13:22.385Z,15.81
2022-10-05T20:15:44.815Z,15.77
2022-10-05T20:18:05.466Z,15.74
2022-10-05T20:20:38.191Z,15.73
2022-10-05T20:22:46.377Z,15.68
2022-10-05T20:24:53.609Z,15.62
2022-10-05T20:27:02.721Z,15.62
2022-10-05T20:29:09.723Z,15.59
2022-10-05T20:31:14.450Z,15.57
2022-10-05T20:33:17.470Z,15.55
2022-10-05T20:35:22.334Z,15.54
2022-10-05T20:37:25.637Z,15.52
2022-10-05T20:39:30.432Z,15.50
2022-10-05T20:41:35.781Z,15.45
2022-10-05T20:43:40.429Z,15.42
2022-10-05T20:45:44.233Z,15.35
2022-10-05T20:47:47.604Z,15.30
2022-10-05T20:49:50.571Z,15.24
2022-10-05T20:51:55.701Z,15.23
2022-10-05T20:53:58.769Z,15.20
2022-10-05T20:56:04.430Z,15.19
2022-10-05T20:58:08.950Z,15.18
2022-10-05T21:00:14.633Z,15.16
2022-10-05T21:02:18.818Z,15.14
2022-10-05T21:04:23.319Z,15.12
2022-10-05T21:06:28.582Z,15.11
2022-10-05T21:08:31.708Z,15.09
2022-10-05T21:10:36.843Z,15.07
2022-10-05T21:12:39.912Z,15.06
2022-10-05T21:14:43.116Z,15.01
2022-10-05T21:16:47.540Z,14.98
2022-10-05T21:18:50.539Z,14.95
2022-10-05T21:20:53.417Z,14.94
2022-10-05T21:22:56.360Z,14.94
2022-10-05T21:24:59.372Z,14.90
2022-10-05T21:27:02.803Z,14.86
2022-10-05T21:29:09.033Z,14.85
2022-10-05T21:31:15.223Z,14.83
2022-10-05T21:33:19.777Z,14.78
2022-10-05T21:35:22.736Z,14.74
2022-10-05T21:37:25.761Z,14.74
2022-10-05T21:39:28.669Z,14.68
2022-10-05T21:41:31.654Z,14.66
2022-10-05T21:43:34.580Z,14.64
2022-10-05T21:45:37.657Z,14.61
2022-10-05T21:47:41.275Z,14.59
2022-10-05T21:49:45.982Z,14.59
2022-10-05T21:51:49.195Z,14.56
2022-10-05T21:53:54.894Z,14.51
2022-10-05T21:56:02.716Z,14.49
2022-10-05T21:58:05.927Z,14.49
2022-10-05T22:00:10.443Z,14.45
2022-10-05T22:02:13.477Z,14.43
2022-10-05T22:04:16.405Z,14.39
2022-10-05T22:06:20.881Z,14.37
2022-10-05T22:08:26.131Z,14.38
2022-10-05T22:10:29.154Z,14.36
2022-10-05T22:12:32.563Z,14.33
2022-10-05T22:14:35.558Z,14.31
2022-10-05T22:16:38.868Z,14.30
2022-10-05T22:18:42.013Z,14.27
2022-10-05T22:20:46.068Z,14.25
2022-10-05T22:22:50.483Z,14.25
2022-10-05T22:24:53.945Z,14.23
2022-10-05T22:26:56.878Z,14.20
2022-10-05T22:29:01.678Z,14.20
2022-10-05T22:31:05.988Z,14.19
2022-10-05T22:33:09.448Z,14.18
2022-10-05T22:35:12.415Z,14.16
2022-10-05T22:37:15.606Z,14.12
2022-10-05T22:39:19.950Z,14.10
2022-10-05T22:41:22.890Z,14.05
2022-10-05T22:43:26.948Z,14.04
2022-10-05T22:45:32.624Z,14.02
2022-10-05T22:47:36.181Z,14.01
2022-10-05T22:49:39.280Z,14.00
2022-10-05T22:51:42.474Z,13.98
2022-10-05T22:53:45.382Z,13.97
2022-10-05T22:55:49.804Z,13.97
2022-10-05T22:57:52.756Z,13.94
2022-10-05T22:59:55.746Z,13.92
2022-10-05T23:01:59.261Z,13.90
2022-10-05T23:04:02.395Z,13.87
2022-10-05T23:06:06.937Z,13.85
2022-10-05T23:08:09.828Z,13.82
2022-10-05T23:10:15.750Z,13.80
2022-10-05T23:12:19.967Z,13.77
2022-10-05T23:14:23.592Z,13.72
2022-10-05T23:16:28.609Z,13.70
2022-10-05T23:18:31.901Z,13.69
2022-10-05T23:20:35.024Z,13.67
2022-10-05T23:22:38.277Z,13.66
2022-10-05T23:24:41.189Z,13.64
2022-10-05T23:26:44.141Z,13.60
2022-10-05T23:28:49.959Z,13.55
2022-10-05T23:30:53.028Z,13.55
2022-10-05T23:32:56.012Z,13.53
2022-10-05T23:34:58.943Z,13.49
2022-10-05T23:37:01.814Z,13.50
2022-10-05T23:39:04.954Z,13.51
2022-10-05T23:41:08.922Z,13.49
2022-10-05T23:43:11.811Z,13.46
2022-10-05T23:45:16.264Z,13.44
2022-10-05T23:47:19.215Z,13.42
2022-10-05T23:49:22.120Z,13.40
2022-10-05T23:51:25.159Z,13.38
2022-10-05T23:53:28.167Z,13.35
2022-10-05T23:55:31.098Z,13.33
2022-10-05T23:57:34.068Z,13.32
2022-10-05T23:59:36.977Z,13.31
